Time;durP1;ratioP1;P1;durP2;ratioP2;P2;SDS_P1;SDS_P2;PMS_P1;PMS_P2;Temp;Humidity;BMP_temperature;BMP_pressure;BME280_temperature;BME280_humidity;BME280_pressure;Samples;Min_cycle;Max_cycle;Signal;HPM_P1;HPM_P2
2022/03/18 00:02:14;;;;;;;0.00;0.00;;;;;;;20.56;21.79;103752.28;10527709;28;20445;-79
2022/03/18 00:07:16;;;;;;;0.00;0.00;;;;;;;20.11;22.51;103758.81;10521440;28;20139;-79
2022/03/18 00:12:18;;;;;;;0.00;0.00;;;;;;;16.17;27.83;103783.88;10538350;28;20044;-79
2022/03/18 00:17:19;;;;;;;0.22;0.22;;;;;;;18.59;25.12;103763.94;10539795;28;20050;-78
2022/03/18 00:22:21;;;;;;;0.00;0.00;;;;;;;20.66;22.58;103777.06;10539726;28;20449;-79
2022/03/18 00:27:23;;;;;;;0.00;0.00;;;;;;;20.16;22.75;103775.53;10521050;28;20043;-79
2022/03/18 00:32:25;;;;;;;0.00;0.00;;;;;;;20.20;22.46;103779.13;10537387;28;20229;-79
2022/03/18 00:37:26;;;;;;;0.00;0.00;;;;;;;20.72;22.50;103774.63;10519073;28;20059;-79
2022/03/18 00:42:28;;;;;;;0.00;0.00;;;;;;;20.20;22.38;103789.59;10520340;28;20040;-79
2022/03/18 00:52:52;;;;;;;0.00;0.00;;;;;;;20.48;22.84;103788.75;10530056;28;20035;-79
2022/03/18 00:57:55;;;;;;;0.00;0.00;;;;;;;19.97;23.44;103797.59;10520235;28;20135;-79
2022/03/18 01:02:56;;;;;;;0.00;0.00;;;;;;;19.43;23.71;103804.50;10538183;28;20046;-78
2022/03/18 01:07:58;;;;;;;0.00;0.00;;;;;;;20.33;22.02;103796.13;10498645;28;20404;-79
2022/03/18 01:13:00;;;;;;;0.00;0.00;;;;;;;19.97;21.98;103805.44;10537841;28;20119;-79
2022/03/18 01:18:02;;;;;;;0.00;0.00;;;;;;;19.75;22.92;103811.69;10519004;28;20048;-79
2022/03/18 01:23:06;;;;;;;0.00;0.00;;;;;;;19.06;24.02;103812.72;10536971;28;20492;-79
2022/03/18 01:28:07;;;;;;;0.00;0.00;;;;;;;19.29;23.99;103819.69;10537028;28;20105;-79
2022/03/18 01:33:10;;;;;;;0.00;0.00;;;;;;;19.69;23.54;103821.94;10536247;28;20074;-79
2022/03/18 01:38:11;;;;;;;0.00;0.00;;;;;;;19.80;23.80;103811.00;10536649;28;20098;-79
2022/03/18 01:43:13;;;;;;;0.00;0.00;;;;;;;19.82;22.87;103819.78;10536686;28;20041;-78
2022/03/18 01:48:15;;;;;;;0.00;0.00;;;;;;;19.28;23.60;103836.19;10515760;28;20455;-78
2022/03/18 01:53:17;;;;;;;1.67;1.60;;;;;;;16.63;26.18;103847.66;10512739;28;20127;-78
2022/03/18 01:58:19;;;;;;;0.00;0.00;;;;;;;16.76;26.11;103849.09;10534049;28;20446;-78
2022/03/18 02:03:20;;;;;;;0.25;0.25;;;;;;;18.26;24.40;103820.94;10531334;28;20097;-78
2022/03/18 02:08:23;;;;;;;0.10;0.10;;;;;;;18.67;24.48;103835.63;10517113;28;20044;-78
2022/03/18 02:13:24;;;;;;;0.00;0.00;;;;;;;19.21;23.72;103831.59;10549727;28;20127;-77
2022/03/18 02:18:26;;;;;;;0.00;0.00;;;;;;;19.34;23.52;103843.38;10535291;28;20148;-77
2022/03/18 02:23:27;;;;;;;0.05;0.05;;;;;;;19.50;23.25;103847.44;10534797;28;20127;-76
2022/03/18 02:28:29;;;;;;;0.10;0.10;;;;;;;19.69;22.96;103842.88;10534096;28;20139;-78
2022/03/18 02:33:30;;;;;;;0.00;0.00;;;;;;;18.92;22.78;103835.72;10515830;28;20054;-77
2022/03/18 02:38:32;;;;;;;0.00;0.00;;;;;;;18.19;24.60;103835.47;10516062;28;20052;-78
2022/03/18 02:43:33;;;;;;;0.00;0.00;;;;;;;19.42;23.02;103831.47;10515988;28;20040;-77
2022/03/18 02:48:35;;;;;;;0.10;0.10;;;;;;;18.94;23.56;103834.97;10533848;28;20047;-77
2022/03/18 02:53:36;;;;;;;0.00;0.00;;;;;;;20.49;21.63;103842.91;10523258;28;20040;-77
2022/03/18 02:58:38;;;;;;;0.00;0.00;;;;;;;19.38;23.02;103862.69;10533567;28;20070;-77
2022/03/18 03:03:39;;;;;;;0.00;0.00;;;;;;;18.42;24.06;103866.84;10532259;28;20402;-77
2022/03/18 03:08:41;;;;;;;0.00;0.00;;;;;;;19.54;22.92;103864.13;10510877;28;20050;-77
2022/03/18 03:13:43;;;;;;;0.00;0.00;;;;;;;19.28;22.96;103878.03;10524704;28;20123;-77
2022/03/18 03:18:46;;;;;;;0.00;0.00;;;;;;;18.14;24.59;103868.28;10533354;28;20473;-76
2022/03/18 03:23:47;;;;;;;0.10;0.10;;;;;;;18.06;24.55;103871.47;10535662;28;20043;-77
2022/03/18 03:28:50;;;;;;;0.00;0.00;;;;;;;17.66;24.67;103877.56;10515636;28;20552;-77
2022/03/18 03:33:51;;;;;;;0.00;0.00;;;;;;;18.82;24.00;103868.41;10549114;28;20206;-77
2022/03/18 03:38:53;;;;;;;0.00;0.00;;;;;;;19.32;22.80;103874.66;10528145;28;20127;-78
2022/03/18 03:43:54;;;;;;;0.00;0.00;;;;;;;18.39;23.98;103888.50;10539029;28;20123;-77
2022/03/18 03:48:56;;;;;;;0.00;0.00;;;;;;;18.45;24.29;103895.66;10541410;28;20131;-78
2022/03/18 03:53:57;;;;;;;0.00;0.00;;;;;;;14.87;28.88;103915.66;10540622;28;20534;-78
2022/03/18 03:58:59;;;;;;;0.00;0.00;;;;;;;17.42;26.18;103922.56;10523558;28;20114;-78
2022/03/18 04:04:00;;;;;;;0.00;0.00;;;;;;;18.38;24.49;103911.06;10517183;28;20059;-77
2022/03/18 04:09:02;;;;;;;0.00;0.00;;;;;;;19.06;22.83;103905.09;10537539;28;20135;-77
2022/03/18 04:14:03;;;;;;;0.00;0.00;;;;;;;18.68;23.36;103905.31;10540762;28;20135;-77
2022/03/18 04:19:05;;;;;;;0.00;0.00;;;;;;;18.23;23.37;103916.56;10522421;28;20253;-77
2022/03/18 04:24:07;;;;;;;0.10;0.10;;;;;;;18.92;23.42;103928.06;10522067;28;20089;-76
2022/03/18 04:29:08;;;;;;;0.10;0.10;;;;;;;17.98;23.85;103951.16;10522625;28;20277;-76
2022/03/18 04:34:11;;;;;;;0.10;0.10;;;;;;;18.76;23.01;103956.97;10540306;28;20040;-78
2022/03/18 04:39:12;;;;;;;0.00;0.00;;;;;;;18.98;21.96;103962.25;10535607;28;20143;-76
2022/03/18 04:44:14;;;;;;;0.00;0.00;;;;;;;18.79;22.61;103964.94;10530772;28;20135;-77
2022/03/18 04:49:16;;;;;;;0.00;0.00;;;;;;;18.56;23.36;103970.09;10522129;28;20142;-77
2022/03/18 04:54:45;;;;;;;0.00;0.00;;;;;;;18.90;22.96;103963.63;10538289;28;20487;-76
2022/03/18 04:59:48;;;;;;;0.00;0.00;;;;;;;19.55;21.77;103978.34;10537271;28;20115;-77
2022/03/18 05:04:51;;;;;;;0.05;0.05;;;;;;;19.62;21.95;103982.97;10539294;28;20040;-77
2022/03/18 05:09:52;;;;;;;0.00;0.00;;;;;;;18.97;22.74;103989.22;10539276;28;20134;-76
2022/03/18 05:14:55;;;;;;;0.00;0.00;;;;;;;18.93;23.48;103982.09;10539369;28;20028;-77
2022/03/18 05:19:56;;;;;;;0.68;0.68;;;;;;;17.85;24.56;103996.63;10538651;28;20072;-76
2022/03/18 05:24:59;;;;;;;0.00;0.00;;;;;;;18.74;23.24;103998.69;10520536;28;20185;-77
2022/03/18 05:30:00;;;;;;;0.00;0.00;;;;;;;18.28;23.67;104018.50;10538355;28;20048;-77
2022/03/18 05:35:04;;;;;;;0.00;0.00;;;;;;;19.49;21.77;104015.59;10539244;28;20344;-76
2022/03/18 05:40:06;;;;;;;0.00;0.00;;;;;;;19.08;22.61;104020.13;10504420;28;20147;-77
2022/03/18 05:45:08;;;;;;;0.00;0.00;;;;;;;17.87;24.23;104030.59;10520076;28;20072;-78
2022/03/18 05:50:15;;;;;;;0.00;0.00;;;;;;;19.27;22.92;104022.63;10537789;28;20122;-77
2022/03/18 05:55:17;;;;;;;0.00;0.00;;;;;;;17.58;24.45;104048.38;10551874;28;20131;-78
2022/03/18 06:00:21;;;;;;;0.00;0.00;;;;;;;19.41;22.50;104041.47;10518761;28;20040;-78
2022/03/18 06:05:23;;;;;;;0.00;0.00;;;;;;;19.41;22.46;104045.78;10528109;28;20482;-78
2022/03/18 06:15:45;;;;;;;0.00;0.00;;;;;;;18.65;23.92;104046.19;10553141;28;20046;-76
2022/03/18 06:20:52;;;;;;;0.00;0.00;;;;;;;19.40;23.61;104054.50;10536669;28;20040;-78
2022/03/18 06:25:54;;;;;;;0.00;0.00;;;;;;;18.60;24.73;104076.44;10518972;28;20036;-77
2022/03/18 06:30:55;;;;;;;0.00;0.00;;;;;;;19.26;24.46;104067.00;10536787;28;20127;-77
2022/03/18 06:35:57;;;;;;;0.10;0.10;;;;;;;19.44;24.45;104059.00;10536672;28;20081;-77
2022/03/18 06:40:58;;;;;;;0.25;0.25;;;;;;;19.95;23.66;104066.19;10515868;28;20060;-78
2022/03/18 06:46:00;;;;;;;0.00;0.00;;;;;;;21.11;22.48;104070.19;10531438;28;20127;-77
2022/03/18 06:51:01;;;;;;;0.00;0.00;;;;;;;19.75;24.16;104079.38;10532831;28;20044;-79
2022/03/18 06:56:07;;;;;;;0.00;0.00;;;;;;;19.34;25.60;104076.91;10524901;28;20483;-79
2022/03/18 07:01:09;;;;;;;0.00;0.00;;;;;;;20.11;24.40;104093.81;10546672;28;20085;-79
2022/03/18 07:06:11;;;;;;;0.00;0.00;;;;;;;20.95;24.73;104102.00;10529967;28;20047;-78
2022/03/18 07:11:13;;;;;;;4.32;3.92;;;;;;;19.96;26.24;104100.28;10526888;28;20036;-77
2022/03/18 07:21:36;;;;;;;0.00;0.00;;;;;;;18.90;27.82;104119.50;10518673;28;20117;-78
2022/03/18 07:26:38;;;;;;;0.00;0.00;;;;;;;19.10;27.72;104125.59;10523279;28;20048;-78
2022/03/18 07:31:39;;;;;;;0.00;0.00;;;;;;;21.53;24.95;104117.00;10538109;28;20548;-77
2022/03/18 07:36:41;;;;;;;0.15;0.15;;;;;;;22.16;24.36;104120.63;10522637;28;20128;-78
2022/03/18 07:41:43;;;;;;;0.00;0.00;;;;;;;24.00;22.95;104129.63;10523471;28;20540;-78
2022/03/18 07:46:46;;;;;;;0.00;0.00;;;;;;;22.19;24.76;104144.38;10541258;28;20044;-79
2022/03/18 07:51:48;;;;;;;1.55;1.05;;;;;;;21.69;26.17;104147.25;10531079;28;20032;-79
2022/03/18 07:56:51;;;;;;;0.00;0.00;;;;;;;24.71;23.38;104133.63;10540413;28;20044;-79
2022/03/18 08:01:52;;;;;;;0.08;0.03;;;;;;;25.52;21.54;104139.31;10514231;28;20036;-78
2022/03/18 08:06:55;;;;;;;0.75;0.68;;;;;;;24.33;23.07;104146.94;10519176;28;20105;-78
2022/03/18 08:11:57;;;;;;;0.22;0.22;;;;;;;24.57;24.06;104140.38;10529330;28;20050;-79
2022/03/18 08:16:58;;;;;;;0.00;0.00;;;;;;;26.37;22.16;104146.56;10517803;28;20044;-80
2022/03/18 08:22:01;;;;;;;0.00;0.00;;;;;;;25.69;22.66;104144.84;10536122;28;20147;-79
2022/03/18 08:27:04;;;;;;;0.40;0.40;;;;;;;26.82;21.31;104162.91;10518843;28;20093;-80
2022/03/18 08:32:07;;;;;;;0.10;0.10;;;;;;;25.97;22.93;104168.09;10521186;28;20067;-80
2022/03/18 08:37:10;;;;;;;0.25;0.20;;;;;;;27.94;20.52;104171.63;10520865;28;20079;-80
2022/03/18 08:42:11;;;;;;;0.00;0.00;;;;;;;27.17;21.15;104187.91;10520683;28;20506;-80
2022/03/18 08:47:13;;;;;;;0.05;0.03;;;;;;;26.57;21.20;104194.38;10521337;28;20552;-80
2022/03/18 08:52:14;;;;;;;0.00;0.00;;;;;;;28.49;19.82;104193.03;10538779;28;20123;-80
2022/03/18 08:57:16;;;;;;;0.40;0.40;;;;;;;28.60;20.27;104206.28;10520804;28;20063;-80
2022/03/18 09:02:18;;;;;;;0.00;0.00;;;;;;;26.62;20.99;104226.16;10519920;28;20126;-81
2022/03/18 09:07:20;;;;;;;2.47;1.50;;;;;;;29.72;18.14;104215.16;10520018;28;20556;-80
2022/03/18 09:12:21;;;;;;;0.00;0.00;;;;;;;28.24;18.63;104228.31;10520217;28;20032;-81
2022/03/18 09:17:23;;;;;;;0.00;0.00;;;;;;;28.23;18.24;104232.72;10537699;28;20044;-80
2022/03/18 09:22:25;;;;;;;0.10;0.10;;;;;;;28.87;17.90;104238.22;10519443;28;20098;-80
2022/03/18 09:27:26;;;;;;;0.50;0.43;;;;;;;28.83;18.34;104249.72;10518834;28;20044;-80
2022/03/18 09:32:28;;;;;;;0.08;0.08;;;;;;;28.69;17.98;104242.63;10537122;28;20101;-80
2022/03/18 09:37:30;;;;;;;0.00;0.00;;;;;;;28.26;17.65;104242.47;10535411;28;20093;-79
2022/03/18 09:42:32;;;;;;;3.47;0.77;;;;;;;28.92;16.77;104255.03;10518555;28;20570;-79
2022/03/18 09:47:34;;;;;;;0.00;0.00;;;;;;;29.16;16.33;104256.81;10519501;28;20065;-80
2022/03/18 09:52:37;;;;;;;0.00;0.00;;;;;;;27.65;18.10;104271.25;10518460;28;20036;-79
2022/03/18 09:57:44;;;;;;;0.00;0.00;;;;;;;28.83;16.89;104271.81;10537860;28;20062;-79
2022/03/18 10:02:45;;;;;;;0.00;0.00;;;;;;;28.40;16.21;104272.56;10520706;28;20115;-80
2022/03/18 10:07:54;;;;;;;0.00;0.00;;;;;;;29.00;16.14;104269.22;10518838;28;20135;-79
2022/03/18 10:13:00;;;;;;;0.00;0.00;;;;;;;28.99;16.11;104278.06;10519629;28;20074;-80
2022/03/18 10:18:02;;;;;;;0.10;0.05;;;;;;;30.49;15.99;104274.28;10518865;28;20051;-80
2022/03/18 10:23:15;;;;;;;0.20;0.10;;;;;;;26.35;19.54;104290.16;10536651;28;20047;-79
2022/03/18 10:28:44;;;;;;;0.00;0.00;;;;;;;28.95;17.01;104282.47;10539146;28;20048;-79
2022/03/18 10:39:50;;;;;;;0.10;0.00;;;;;;;30.33;16.77;104284.09;10535897;28;20624;-80
2022/03/18 10:44:59;;;;;;;0.00;0.00;;;;;;;28.02;17.16;104303.25;10535144;28;20123;-80
2022/03/18 10:50:11;;;;;;;1.65;0.70;;;;;;;27.51;17.97;104305.59;10534711;28;20067;-79
2022/03/18 10:55:18;;;;;;;0.82;0.80;;;;;;;25.38;21.24;104300.06;10486182;28;20036;-79
2022/03/18 11:00:22;;;;;;;3.30;0.35;;;;;;;28.95;16.89;104290.44;10544531;28;20054;-80
2022/03/18 11:05:42;;;;;;;0.00;0.00;;;;;;;31.09;15.03;104287.22;10517312;28;20040;-80
2022/03/18 11:11:07;;;;;;;0.00;0.00;;;;;;;29.70;16.53;104288.69;10534476;28;20043;-79
2022/03/18 11:16:10;;;;;;;0.20;0.20;;;;;;;31.27;16.48;104280.00;10533710;28;20040;-81
2022/03/18 11:21:13;;;;;;;0.15;0.15;;;;;;;30.05;16.87;104276.22;10517606;28;20050;-78
2022/03/18 11:26:16;;;;;;;0.00;0.00;;;;;;;30.58;17.33;104284.88;10551110;28;20035;-79
2022/03/18 11:31:18;;;;;;;0.00;0.00;;;;;;;28.79;17.02;104286.84;10534158;28;20097;-80
2022/03/18 11:36:20;;;;;;;1.30;1.25;;;;;;;30.68;15.98;104280.41;10534740;28;20101;-80
2022/03/18 11:41:49;;;;;;;0.32;0.32;;;;;;;28.24;18.64;104281.34;10536267;28;20124;-80
2022/03/18 11:46:52;;;;;;;0.65;0.45;;;;;;;29.38;17.51;104273.66;10519703;28;20052;-80
2022/03/18 11:51:58;;;;;;;1.60;0.65;;;;;;;27.01;20.02;104276.84;10551957;28;20067;-80
2022/03/18 11:57:03;;;;;;;1.27;0.43;;;;;;;31.48;15.25;104266.47;10516097;28;20188;-80
2022/03/18 12:02:05;;;;;;;3.55;0.75;;;;;;;27.54;19.39;104273.81;10536289;28;20072;-80
2022/03/18 12:07:13;;;;;;;0.32;0.32;;;;;;;28.38;18.91;104263.72;10543169;28;20526;-80
2022/03/18 12:12:16;;;;;;;1.10;0.73;;;;;;;27.82;18.57;104281.94;10524089;28;20130;-79
2022/03/18 12:17:19;;;;;;;0.25;0.25;;;;;;;30.12;16.89;104269.13;10557527;28;20048;-80
2022/03/18 12:22:44;;;;;;;0.08;0.08;;;;;;;29.82;17.43;104265.63;10519945;28;20130;-78
2022/03/18 12:27:46;;;;;;;0.00;0.00;;;;;;;28.60;18.55;104277.03;10524702;28;20048;-80
2022/03/18 12:33:02;;;;;;;0.10;0.10;;;;;;;29.97;17.95;104265.63;10542810;28;20475;-79
2022/03/18 12:38:18;;;;;;;0.00;0.00;;;;;;;30.25;17.75;104268.16;10523326;28;20751;-80
2022/03/18 12:43:20;;;;;;;0.75;0.43;;;;;;;27.57;19.65;104266.78;10523384;28;20499;-80
2022/03/18 12:48:22;;;;;;;0.30;0.30;;;;;;;29.32;17.85;104255.06;10523082;28;20490;-80
2022/03/18 12:53:26;;;;;;;0.40;0.40;;;;;;;29.07;19.70;104252.41;10521594;28;20067;-79
2022/03/18 12:58:39;;;;;;;2.28;0.90;;;;;;;30.80;18.07;104244.81;10510940;28;20051;-80
2022/03/18 13:04:02;;;;;;;0.32;0.32;;;;;;;29.64;17.41;104245.31;10517245;28;20046;-76
2022/03/18 13:09:10;;;;;;;0.28;0.25;;;;;;;29.93;16.82;104231.97;10530568;28;20043;-77
2022/03/18 13:14:37;;;;;;;0.47;0.22;;;;;;;29.80;17.91;104227.53;10527332;28;20129;-78
2022/03/18 13:19:46;;;;;;;0.00;0.00;;;;;;;29.99;17.71;104221.28;10529012;28;20036;-78
2022/03/18 13:24:50;;;;;;;0.22;0.22;;;;;;;30.82;16.85;104224.41;10512415;28;20131;-77
2022/03/18 13:35:43;;;;;;;0.40;0.32;;;;;;;29.36;18.82;104219.69;10531025;28;20036;-77
2022/03/18 13:40:59;;;;;;;0.00;0.00;;;;;;;30.67;16.88;104220.09;10533775;28;20051;-76
2022/03/18 13:46:12;;;;;;;0.85;0.55;;;;;;;27.64;20.16;104237.69;10549396;28;20047;-77
2022/03/18 13:51:33;;;;;;;0.75;0.43;;;;;;;26.54;20.91;104238.41;10537178;28;20094;-78
2022/03/18 13:56:39;;;;;;;0.52;0.20;;;;;;;27.50;20.09;104236.69;10535691;28;20068;-77
2022/03/18 14:02:02;;;;;;;0.93;0.50;;;;;;;26.62;21.90;104220.00;10536889;28;20032;-76
2022/03/18 14:07:05;;;;;;;0.25;0.25;;;;;;;27.60;20.01;104219.09;10558844;27;20068;-75
2022/03/18 14:12:18;;;;;;;0.20;0.20;;;;;;;27.40;20.91;104218.06;10528934;28;20051;-78
2022/03/18 14:17:24;;;;;;;0.00;0.00;;;;;;;27.86;19.47;104216.59;10527465;28;20086;-77
2022/03/18 14:22:41;;;;;;;1.35;0.90;;;;;;;26.76;20.67;104207.84;10521371;28;20099;-77
2022/03/18 14:27:44;;;;;;;0.15;0.15;;;;;;;27.19;20.40;104213.50;10515864;28;20115;-78
2022/03/18 14:32:52;;;;;;;0.00;0.00;;;;;;;29.37;18.52;104194.00;10529411;28;20044;-77
2022/03/18 14:38:11;;;;;;;3.00;2.35;;;;;;;26.13;20.85;104205.31;10521964;28;20052;-78
2022/03/18 14:43:13;;;;;;;0.05;0.05;;;;;;;27.48;19.80;104207.56;10530244;28;20554;-79
2022/03/18 14:48:15;;;;;;;0.00;0.00;;;;;;;29.01;18.58;104196.63;10517936;28;20511;-76
2022/03/18 14:53:17;;;;;;;0.45;0.20;;;;;;;26.65;21.20;104205.03;10511603;28;20048;-78
2022/03/18 14:58:23;;;;;;;0.00;0.00;;;;;;;29.75;18.94;104193.88;10515194;28;20159;-77
2022/03/18 15:03:24;;;;;;;0.17;0.13;;;;;;;27.01;20.14;104202.75;10525498;28;20147;-76
2022/03/18 15:08:32;;;;;;;0.00;0.00;;;;;;;27.38;20.68;104192.44;10512747;28;20476;-76
2022/03/18 15:13:36;;;;;;;0.00;0.00;;;;;;;28.15;19.95;104186.72;10523052;28;20113;-77
2022/03/18 15:18:38;;;;;;;0.00;0.00;;;;;;;28.29;19.93;104181.47;10528089;28;20075;-75
2022/03/18 15:23:39;;;;;;;0.20;0.20;;;;;;;27.40;20.33;104182.75;10537568;28;20072;-75
2022/03/18 15:28:42;;;;;;;0.10;0.10;;;;;;;27.20;19.50;104183.53;10532096;28;20082;-76
2022/03/18 15:33:44;;;;;;;1.58;0.30;;;;;;;27.13;21.33;104187.00;10519958;28;20125;-75
2022/03/18 15:38:45;;;;;;;1.02;0.55;;;;;;;26.43;20.62;104180.13;10535512;28;20079;-76
2022/03/18 15:43:50;;;;;;;0.25;0.25;;;;;;;27.09;20.62;104185.19;10527314;28;20064;-76
2022/03/18 15:48:51;;;;;;;0.30;0.25;;;;;;;26.51;21.18;104186.38;10539996;28;20101;-77
2022/03/18 15:53:53;;;;;;;0.08;0.08;;;;;;;27.52;20.41;104187.28;10526974;28;20139;-77
2022/03/18 15:58:55;;;;;;;0.00;0.00;;;;;;;26.63;21.09;104190.00;10517924;28;20097;-75
2022/03/18 16:03:56;;;;;;;0.10;0.10;;;;;;;27.39;20.58;104196.88;10547269;28;20119;-75
2022/03/18 16:08:59;;;;;;;0.00;0.00;;;;;;;27.19;21.74;104194.97;10554255;28;20055;-77
2022/03/18 16:14:01;;;;;;;6.13;0.95;;;;;;;26.46;21.07;104193.38;10535630;28;20093;-76
2022/03/18 16:19:05;;;;;;;0.45;0.40;;;;;;;26.27;21.32;104192.28;10547646;28;20036;-75
2022/03/18 16:24:07;;;;;;;0.38;0.30;;;;;;;27.28;20.85;104193.28;10532869;28;20064;-75
2022/03/18 16:29:10;;;;;;;2.38;0.47;;;;;;;26.04;21.63;104205.16;10533555;28;20102;-77
2022/03/18 16:34:12;;;;;;;0.00;0.00;;;;;;;28.73;19.24;104191.31;10518240;28;20043;-77
2022/03/18 16:39:14;;;;;;;0.20;0.20;;;;;;;26.90;21.11;104206.22;10536302;28;20479;-76
2022/03/18 16:44:16;;;;;;;0.30;0.20;;;;;;;25.76;21.80;104204.78;10511127;28;20126;-76
2022/03/18 16:49:24;;;;;;;0.10;0.10;;;;;;;27.27;21.15;104205.59;10540521;28;20083;-76
2022/03/18 16:54:28;;;;;;;0.00;0.00;;;;;;;26.52;21.86;104214.59;10528700;28;20040;-77
2022/03/18 16:59:31;;;;;;;0.30;0.30;;;;;;;26.27;21.84;104211.66;10523401;28;20121;-76
2022/03/18 17:04:37;;;;;;;0.00;0.00;;;;;;;27.14;20.85;104215.25;10531597;28;20051;-77
2022/03/18 17:09:38;;;;;;;0.00;0.00;;;;;;;26.76;21.84;104227.22;10516261;28;20517;-76
2022/03/18 17:14:40;;;;;;;0.08;0.08;;;;;;;26.20;21.93;104228.31;10532989;28;20044;-76
2022/03/18 17:19:42;;;;;;;0.00;0.00;;;;;;;26.34;22.20;104235.50;10525409;28;20549;-76
2022/03/18 17:24:45;;;;;;;0.00;0.00;;;;;;;27.22;20.90;104245.28;10533677;28;20042;-76
2022/03/18 17:29:47;;;;;;;0.00;0.00;;;;;;;25.97;22.30;104239.44;10536872;28;20043;-76
2022/03/18 17:34:48;;;;;;;0.00;0.00;;;;;;;26.65;21.94;104238.53;10515943;28;20040;-76
2022/03/18 17:39:50;;;;;;;0.00;0.00;;;;;;;25.43;23.06;104248.31;10522112;28;20044;-76
2022/03/18 17:44:52;;;;;;;0.00;0.00;;;;;;;25.28;22.93;104248.88;10535848;28;20530;-78
2022/03/18 17:49:53;;;;;;;1.25;0.32;;;;;;;25.90;22.12;104250.78;10512445;28;20136;-77
2022/03/18 17:54:55;;;;;;;0.00;0.00;;;;;;;26.24;21.87;104251.28;10527467;28;20041;-77
2022/03/18 17:59:57;;;;;;;0.00;0.00;;;;;;;25.31;22.64;104249.81;10525207;28;20048;-77
2022/03/18 18:04:58;;;;;;;0.00;0.00;;;;;;;25.45;22.78;104258.03;10535780;28;20466;-78
2022/03/18 18:10:00;;;;;;;0.00;0.00;;;;;;;24.98;23.01;104256.28;10517043;28;20035;-77
2022/03/18 18:15:03;;;;;;;0.00;0.00;;;;;;;25.84;21.83;104263.03;10529805;28;20075;-77
2022/03/18 18:25:28;;;;;;;0.00;0.00;;;;;;;25.84;21.93;104277.09;10518183;28;20040;-77
2022/03/18 18:30:29;;;;;;;0.00;0.00;;;;;;;26.57;20.89;104275.47;10518195;28;20044;-77
2022/03/18 18:35:32;;;;;;;0.00;0.00;;;;;;;24.95;22.82;104285.25;10510755;28;20506;-78
2022/03/18 18:40:34;;;;;;;0.00;0.00;;;;;;;24.42;23.88;104291.19;10504648;28;20059;-77
2022/03/18 18:45:36;;;;;;;0.00;0.00;;;;;;;24.40;23.86;104292.91;10529309;28;20055;-78
2022/03/18 18:50:38;;;;;;;0.00;0.00;;;;;;;24.68;22.91;104291.78;10513471;28;20071;-77
2022/03/18 18:55:39;;;;;;;0.00;0.00;;;;;;;26.16;21.08;104292.56;10532184;28;20036;-77
2022/03/18 19:00:43;;;;;;;0.00;0.00;;;;;;;27.17;20.29;104292.00;10516611;28;20052;-77
2022/03/18 19:05:48;;;;;;;0.00;0.00;;;;;;;27.28;19.90;104291.22;10534668;28;20043;-77
2022/03/18 19:10:50;;;;;;;0.00;0.00;;;;;;;24.76;22.71;104306.84;10515987;28;20083;-77
2022/03/18 19:15:52;;;;;;;0.00;0.00;;;;;;;25.99;21.16;104313.41;10516524;28;20044;-77
2022/03/18 19:20:53;;;;;;;0.10;0.10;;;;;;;24.27;23.21;104320.72;10516348;28;20052;-77
2022/03/18 19:25:55;;;;;;;0.00;0.00;;;;;;;23.89;24.05;104320.66;10534121;28;20487;-77
2022/03/18 19:30:57;;;;;;;0.00;0.00;;;;;;;23.43;24.41;104326.53;10515507;28;20134;-77
2022/03/18 19:35:59;;;;;;;0.00;0.00;;;;;;;21.06;28.25;104332.22;10515648;28;20143;-77
2022/03/18 19:41:00;;;;;;;0.00;0.00;;;;;;;21.62;27.25;104330.69;10498880;28;20544;-77
2022/03/18 19:46:03;;;;;;;0.10;0.10;;;;;;;21.03;28.24;104332.09;10533888;28;20093;-77
2022/03/18 19:51:04;;;;;;;1.17;1.00;;;;;;;20.74;28.95;104342.38;10515493;28;20056;-77
2022/03/18 20:01:26;;;;;;;0.68;0.63;;;;;;;20.63;29.32;104348.00;10532685;28;20087;-82
2022/03/18 20:06:30;;;;;;;0.00;0.00;;;;;;;21.86;27.41;104349.88;10532816;28;20038;-81
2022/03/18 20:11:31;;;;;;;1.60;0.95;;;;;;;21.52;27.84;104348.69;10532353;28;20503;-82
2022/03/18 20:16:33;;;;;;;0.03;0.03;;;;;;;22.04;27.28;104353.94;10514272;28;20075;-81
2022/03/18 20:21:35;;;;;;;0.55;0.32;;;;;;;22.07;27.13;104348.81;10513636;28;20048;-81
2022/03/18 20:26:38;;;;;;;0.98;0.93;;;;;;;21.66;27.56;104357.09;10537423;28;20044;-82
2022/03/18 20:31:41;;;;;;;0.03;0.03;;;;;;;22.00;27.37;104363.47;10539290;28;20042;-81
2022/03/18 20:36:43;;;;;;;0.63;0.63;;;;;;;21.78;27.76;104377.59;10539571;28;20048;-82
2022/03/18 20:41:44;;;;;;;0.22;0.10;;;;;;;22.55;26.60;104373.09;10538943;28;20134;-81
2022/03/18 20:46:46;;;;;;;0.63;0.40;;;;;;;21.59;27.88;104377.78;10539298;28;20079;-82
2022/03/18 20:51:48;;;;;;;1.17;0.88;;;;;;;20.92;28.82;104381.50;10537991;28;20055;-81
2022/03/18 20:56:50;;;;;;;0.52;0.30;;;;;;;20.99;28.87;104381.72;10538645;28;20040;-81
2022/03/18 21:01:51;;;;;;;1.15;1.05;;;;;;;21.15;28.71;104368.34;10520014;28;20059;-82
2022/03/18 21:06:53;;;;;;;0.75;0.30;;;;;;;21.62;28.14;104376.19;10538001;28;20048;-82
2022/03/18 21:11:55;;;;;;;0.30;0.30;;;;;;;22.22;27.31;104364.16;10519669;28;20091;-82
2022/03/18 21:22:17;;;;;;;0.25;0.25;;;;;;;21.62;27.74;104375.28;10537182;28;20522;-83
2022/03/18 21:32:44;;;;;;;1.92;0.73;;;;;;;21.36;28.27;104372.59;10536760;28;20139;-82
2022/03/18 21:38:01;;;;;;;1.27;1.10;;;;;;;21.75;27.91;104366.09;10536811;28;20048;-83
2022/03/18 21:43:03;;;;;;;0.93;0.80;;;;;;;20.29;29.97;104385.09;10536349;28;20533;-83
2022/03/18 21:48:09;;;;;;;3.20;1.38;;;;;;;20.88;29.09;104379.59;10536641;28;20076;-82
2022/03/18 21:53:12;;;;;;;0.30;0.30;;;;;;;20.82;29.67;104384.59;10509374;28;20156;-83
2022/03/18 21:58:13;;;;;;;1.88;1.77;;;;;;;21.06;29.24;104386.34;10528256;28;20111;-82
2022/03/18 22:03:15;;;;;;;0.00;0.00;;;;;;;22.41;27.12;104386.69;10529180;28;20040;-82
2022/03/18 22:08:18;;;;;;;0.00;0.00;;;;;;;22.22;27.67;104389.53;10530402;28;20375;-82
2022/03/18 22:13:20;;;;;;;0.00;0.00;;;;;;;22.28;27.54;104395.00;10528792;28;20441;-82
2022/03/18 22:18:21;;;;;;;0.00;0.00;;;;;;;23.18;26.60;104374.09;10511658;28;20036;-83
2022/03/18 22:23:26;;;;;;;0.10;0.10;;;;;;;22.07;27.43;104390.81;10516516;28;20054;-82
2022/03/18 22:28:28;;;;;;;0.00;0.00;;;;;;;22.17;27.62;104387.66;10521664;28;20071;-82
2022/03/18 22:33:29;;;;;;;0.00;0.00;;;;;;;23.21;26.37;104376.78;10528399;28;20562;-83
2022/03/18 22:38:31;;;;;;;1.00;0.47;;;;;;;21.26;29.40;104386.22;10515961;28;20495;-83
2022/03/18 22:43:32;;;;;;;0.00;0.00;;;;;;;21.63;28.42;104382.34;10534587;28;20052;-82
2022/03/18 22:48:34;;;;;;;0.00;0.00;;;;;;;21.27;29.35;104378.41;10515598;28;20093;-82
2022/03/18 22:53:35;;;;;;;1.90;0.43;;;;;;;21.50;28.88;104389.72;10515716;28;20213;-82
2022/03/18 22:58:38;;;;;;;0.05;0.05;;;;;;;21.45;28.97;104391.28;10513199;28;20452;-82
2022/03/18 23:03:40;;;;;;;0.00;0.00;;;;;;;21.44;29.44;104381.63;10528187;28;20127;-82
2022/03/18 23:08:41;;;;;;;0.00;0.00;;;;;;;21.20;29.03;104393.00;10516707;28;20036;-82
2022/03/18 23:13:48;;;;;;;0.00;0.00;;;;;;;21.92;28.33;104385.06;10521112;28;20447;-82
2022/03/18 23:18:50;;;;;;;0.00;0.00;;;;;;;24.30;24.63;104386.66;10532455;28;20047;-82
2022/03/18 23:23:52;;;;;;;0.00;0.00;;;;;;;23.03;25.97;104385.94;10511896;28;20046;-82
2022/03/18 23:28:54;;;;;;;0.50;0.40;;;;;;;22.38;27.10;104390.91;10525960;28;20150;-82
2022/03/18 23:33:56;;;;;;;0.00;0.00;;;;;;;22.87;26.92;104384.56;10526299;28;20122;-81
2022/03/18 23:39:02;;;;;;;0.00;0.00;;;;;;;21.16;29.43;104388.50;10528030;28;20460;-80
2022/03/18 23:44:06;;;;;;;0.00;0.00;;;;;;;20.42;30.51;104391.75;10526915;28;20408;-81
2022/03/18 23:49:07;;;;;;;6.43;0.43;;;;;;;20.17;31.36;104387.22;10528817;28;20047;-83
2022/03/18 23:54:10;;;;;;;2.72;0.30;;;;;;;20.53;30.84;104391.28;10513633;28;20406;-82
2022/03/18 23:59:12;;;;;;;0.00;0.00;;;;;;;20.59;30.68;104378.44;10534722;28;20048;-81
